Time;durP1;ratioP1;P1;durP2;ratioP2;P2;SDS_P1;SDS_P2;PMS_P1;PMS_P2;Temp;Humidity;BMP_temperature;BMP_pressure;BME280_temperature;BME280_humidity;BME280_pressure;Samples;Min_cycle;Max_cycle;Signal;HPM_P1;HPM_P2
2023/02/14 00:01:29;;;;;;;49.47;35.58;;;4.80;99.90;;;;;;5053275;28;20102;-48
2023/02/14 00:03:59;;;;;;;52.00;36.83;;;4.80;99.90;;;;;;5056247;28;20036;-49
2023/02/14 00:06:26;;;;;;;53.38;36.85;;;4.70;99.90;;;;;;5056882;28;20502;-48
2023/02/14 00:08:53;;;;;;;55.30;37.13;;;4.70;99.90;;;;;;5056832;28;20037;-50
2023/02/14 00:11:20;;;;;;;49.90;36.25;;;4.70;99.90;;;;;;5056116;28;20099;-50
2023/02/14 00:16:32;;;;;;;54.13;37.50;;;4.60;99.90;;;;;;5056503;28;20056;-49
2023/02/14 00:19:02;;;;;;;55.75;36.85;;;4.60;99.90;;;;;;5056672;28;20258;-50
2023/02/14 00:21:28;;;;;;;57.15;38.47;;;4.60;99.90;;;;;;5056345;28;20442;-47
2023/02/14 00:23:55;;;;;;;57.33;40.22;;;4.60;99.90;;;;;;5056373;28;20472;-50
2023/02/14 00:26:22;;;;;;;56.83;39.20;;;4.60;99.90;;;;;;5056563;28;20384;-49
2023/02/14 00:28:49;;;;;;;60.08;39.72;;;4.60;99.90;;;;;;5055359;28;20102;-51
2023/02/14 00:31:15;;;;;;;57.85;40.58;;;4.60;99.90;;;;;;5056580;28;20041;-50
2023/02/14 00:33:42;;;;;;;57.40;38.00;;;4.60;99.90;;;;;;5056249;28;20033;-51
2023/02/14 00:36:09;;;;;;;59.25;39.00;;;4.70;99.90;;;;;;5054999;28;20388;-48
2023/02/14 00:38:36;;;;;;;63.28;42.08;;;4.70;99.90;;;;;;5056147;28;20041;-49
2023/02/14 00:41:03;;;;;;;58.20;38.67;;;4.70;99.90;;;;;;5055974;28;20037;-48
2023/02/14 00:43:30;;;;;;;56.92;39.47;;;4.70;99.90;;;;;;5056328;28;20106;-49
2023/02/14 00:45:57;;;;;;;58.88;39.15;;;4.70;99.90;;;;;;5054805;28;20186;-49
2023/02/14 00:48:24;;;;;;;54.80;37.63;;;4.70;99.90;;;;;;5054388;28;20049;-50
2023/02/14 00:50:51;;;;;;;55.35;39.03;;;4.70;99.90;;;;;;5055672;28;20049;-51
2023/02/14 00:53:17;;;;;;;59.47;39.58;;;4.70;99.90;;;;;;5056283;28;20128;-54
2023/02/14 00:55:45;;;;;;;56.13;40.15;;;4.70;99.90;;;;;;5056196;28;20045;-49
2023/02/14 00:58:13;;;;;;;55.47;38.83;;;4.70;99.90;;;;;;5055674;28;20045;-47
2023/02/14 01:00:40;;;;;;;57.13;38.92;;;4.70;99.90;;;;;;5055803;28;20045;-50
2023/02/14 01:03:07;;;;;;;56.67;39.17;;;4.70;99.90;;;;;;5055715;28;20083;-49
2023/02/14 01:05:33;;;;;;;59.00;40.80;;;4.70;99.90;;;;;;5056136;28;20048;-49
2023/02/14 01:08:02;;;;;;;53.38;38.05;;;4.70;99.90;;;;;;5054441;28;20041;-49
2023/02/14 01:10:29;;;;;;;60.45;40.05;;;4.70;99.90;;;;;;5055861;28;20075;-47
2023/02/14 01:12:57;;;;;;;56.75;39.08;;;4.70;99.90;;;;;;5053945;28;20124;-52
2023/02/14 01:15:24;;;;;;;58.40;40.47;;;4.70;99.90;;;;;;5055642;28;20401;-47
2023/02/14 01:17:50;;;;;;;57.78;41.15;;;4.70;99.90;;;;;;5053868;28;20049;-55
2023/02/14 01:20:19;;;;;;;56.92;40.17;;;4.70;99.90;;;;;;5054065;28;20099;-52
2023/02/14 01:22:46;;;;;;;62.45;40.88;;;4.70;99.90;;;;;;5055632;28;20468;-50
2023/02/14 01:25:13;;;;;;;53.22;39.25;;;4.70;99.90;;;;;;5055216;28;20099;-52
2023/02/14 01:27:40;;;;;;;54.70;39.08;;;4.70;99.90;;;;;;5054007;28;20385;-52
2023/02/14 01:30:07;;;;;;;53.72;37.35;;;4.70;99.90;;;;;;5053977;28;20048;-50
2023/02/14 01:32:33;;;;;;;52.58;36.75;;;4.60;99.90;;;;;;5055495;28;20388;-51
2023/02/14 01:35:00;;;;;;;53.45;38.42;;;4.60;99.90;;;;;;5055185;28;20049;-53
2023/02/14 01:37:27;;;;;;;54.13;36.60;;;4.50;99.90;;;;;;5055307;28;20041;-52
2023/02/14 01:39:54;;;;;;;51.83;36.58;;;4.40;99.90;;;;;;5055359;28;20423;-54
2023/02/14 01:42:20;;;;;;;49.42;35.88;;;4.40;99.90;;;;;;5053810;28;20094;-54
2023/02/14 01:44:48;;;;;;;51.28;35.22;;;4.30;99.90;;;;;;5053873;28;20136;-50
2023/02/14 01:47:15;;;;;;;54.67;36.88;;;4.30;99.90;;;;;;5055136;28;20080;-54
2023/02/14 01:49:42;;;;;;;51.33;35.72;;;4.20;99.90;;;;;;5054853;28;20435;-49
2023/02/14 01:52:10;;;;;;;52.25;35.40;;;4.20;99.90;;;;;;5053577;28;20056;-51
2023/02/14 01:54:36;;;;;;;53.58;37.70;;;4.10;99.90;;;;;;5053780;28;20045;-50
2023/02/14 01:57:03;;;;;;;54.83;37.08;;;4.10;99.90;;;;;;5055127;28;20041;-54
2023/02/14 01:59:30;;;;;;;54.30;35.85;;;4.10;99.90;;;;;;5053189;28;20068;-49
2023/02/14 02:01:57;;;;;;;50.47;36.85;;;4.00;99.90;;;;;;5054669;28;20124;-51
2023/02/14 02:04:23;;;;;;;52.80;37.40;;;4.00;99.90;;;;;;5053326;28;20496;-56
2023/02/14 02:06:50;;;;;;;53.10;35.95;;;4.00;99.90;;;;;;5054669;28;20043;-50
2023/02/14 02:09:17;;;;;;;56.78;37.55;;;3.90;99.90;;;;;;5054690;28;20044;-50
2023/02/14 02:11:44;;;;;;;50.47;35.80;;;3.90;99.90;;;;;;5054388;28;20041;-49
2023/02/14 02:14:14;;;;;;;50.45;36.45;;;3.90;99.90;;;;;;5053251;28;20063;-51
2023/02/14 02:16:41;;;;;;;52.33;36.42;;;3.90;99.90;;;;;;5054501;28;20040;-50
2023/02/14 02:19:08;;;;;;;51.17;36.05;;;3.80;99.90;;;;;;5054521;28;20064;-51
2023/02/14 02:21:35;;;;;;;53.67;37.58;;;3.80;99.90;;;;;;5052956;28;20045;-50
2023/02/14 02:24:01;;;;;;;52.55;36.50;;;3.80;99.90;;;;;;5053104;28;20052;-53
2023/02/14 02:26:33;;;;;;;51.17;36.55;;;3.80;99.90;;;;;;5053758;28;20403;-51
2023/02/14 02:29:00;;;;;;;58.85;38.90;;;3.70;99.90;;;;;;5052669;28;20095;-52
2023/02/14 02:31:27;;;;;;;56.67;37.42;;;3.80;99.90;;;;;;5053019;28;20472;-54
2023/02/14 02:33:54;;;;;;;57.53;39.60;;;3.80;99.90;;;;;;5053074;28;20384;-49
2023/02/14 02:36:20;;;;;;;67.93;43.60;;;3.90;99.90;;;;;;5053816;28;20083;-51
2023/02/14 02:38:47;;;;;;;60.75;42.85;;;3.90;99.90;;;;;;5054231;28;20091;-51
2023/02/14 02:41:14;;;;;;;60.67;41.40;;;4.00;99.90;;;;;;5053927;28;20069;-48
2023/02/14 02:43:40;;;;;;;63.17;43.53;;;4.10;99.90;;;;;;5053903;28;20041;-53
2023/02/14 02:48:53;;;;;;;57.25;41.38;;;4.20;99.90;;;;;;5053433;28;20514;-47
2023/02/14 02:54:05;;;;;;;58.05;40.72;;;4.20;99.90;;;;;;5052006;28;20044;-49
2023/02/14 02:56:44;;;;;;;59.47;41.05;;;4.30;99.90;;;;;;5052024;28;20045;-50
2023/02/14 02:59:17;;;;;;;59.08;41.00;;;4.20;99.90;;;;;;5052085;28;20063;-50
2023/02/14 03:01:49;;;;;;;60.17;41.38;;;4.20;99.90;;;;;;5036940;28;20073;-48
2023/02/14 03:07:33;;;;;;;59.80;41.65;;;4.20;99.90;;;;;;5052444;28;20049;-55
2023/02/14 03:09:48;;;;;;;55.38;38.67;;;4.20;99.90;;;;;;5052182;28;20044;-55
2023/02/14 03:12:14;;;;;;;59.92;39.38;;;4.10;99.90;;;;;;5052565;28;20439;-51
2023/02/14 03:14:42;;;;;;;56.45;38.85;;;4.00;99.90;;;;;;5052101;28;20060;-50
2023/02/14 03:17:09;;;;;;;53.83;37.40;;;4.00;99.90;;;;;;5053594;28;20041;-55
2023/02/14 03:22:21;;;;;;;53.03;37.15;;;3.90;99.90;;;;;;5052415;28;20476;-56
2023/02/14 03:24:48;;;;;;;54.28;38.47;;;3.80;99.90;;;;;;5053607;28;20163;-53
2023/02/14 03:27:14;;;;;;;54.63;38.65;;;3.80;99.90;;;;;;5053317;28;20511;-53
2023/02/14 03:29:41;;;;;;;53.45;39.65;;;3.70;99.90;;;;;;5053649;28;20036;-51
2023/02/14 03:32:09;;;;;;;54.00;38.00;;;3.70;99.90;;;;;;5052138;28;20045;-50
2023/02/14 03:34:36;;;;;;;57.53;40.15;;;3.70;99.90;;;;;;5051927;28;20041;-52
2023/02/14 03:37:02;;;;;;;54.63;39.22;;;3.70;99.90;;;;;;5055289;28;20408;-54
2023/02/14 03:39:29;;;;;;;52.13;36.85;;;3.60;99.90;;;;;;5055777;28;20053;-52
2023/02/14 03:41:56;;;;;;;57.72;38.75;;;3.60;99.90;;;;;;5057468;28;20037;-52
2023/02/14 03:44:24;;;;;;;57.90;39.03;;;3.60;99.90;;;;;;5055885;28;20053;-57
2023/02/14 03:46:51;;;;;;;54.10;37.33;;;3.50;99.90;;;;;;5057168;28;20043;-49
2023/02/14 03:49:18;;;;;;;52.03;38.17;;;3.50;99.90;;;;;;5057135;28;20048;-51
2023/02/14 03:51:44;;;;;;;51.97;38.35;;;3.50;99.90;;;;;;5057179;28;20044;-54
2023/02/14 03:54:11;;;;;;;56.20;38.20;;;3.40;99.90;;;;;;5057003;28;20037;-51
2023/02/14 03:56:38;;;;;;;55.10;38.03;;;3.40;99.90;;;;;;5057088;28;20072;-48
2023/02/14 03:59:05;;;;;;;54.58;38.03;;;3.40;99.90;;;;;;5056947;28;20071;-53
2023/02/14 04:01:32;;;;;;;51.97;37.28;;;3.30;99.90;;;;;;5057354;28;20464;-51
2023/02/14 04:03:59;;;;;;;51.92;36.92;;;3.30;99.90;;;;;;5055638;28;20049;-53
2023/02/14 04:06:25;;;;;;;52.65;37.70;;;3.30;99.90;;;;;;5057035;28;20454;-53
2023/02/14 04:08:52;;;;;;;52.38;37.10;;;3.20;99.90;;;;;;5056797;28;20497;-49
2023/02/14 04:11:19;;;;;;;53.17;37.53;;;3.20;99.90;;;;;;5056354;28;20041;-52
2023/02/14 04:13:45;;;;;;;52.67;36.78;;;3.20;99.90;;;;;;5056639;28;20419;-54
2023/02/14 04:16:12;;;;;;;52.97;36.45;;;3.20;99.90;;;;;;5056628;28;20041;-51
2023/02/14 04:21:25;;;;;;;52.65;38.10;;;3.20;99.90;;;;;;5056915;28;20535;-51
2023/02/14 04:23:51;;;;;;;55.42;40.05;;;3.20;99.90;;;;;;5056269;28;20426;-49
2023/02/14 04:26:18;;;;;;;54.58;39.17;;;3.10;99.90;;;;;;5056371;28;20071;-54
2023/02/14 04:28:45;;;;;;;58.47;39.78;;;3.10;99.90;;;;;;5056405;28;20041;-50
2023/02/14 04:31:12;;;;;;;56.95;38.70;;;3.10;99.90;;;;;;5056424;28;20053;-50
2023/02/14 04:33:38;;;;;;;55.30;40.30;;;3.10;99.90;;;;;;5056421;28;20037;-50
2023/02/14 04:36:05;;;;;;;55.92;39.88;;;3.10;99.90;;;;;;5056311;28;20084;-48
2023/02/14 04:38:32;;;;;;;55.85;38.15;;;3.10;99.90;;;;;;5056670;28;20033;-49
2023/02/14 04:40:59;;;;;;;55.55;38.60;;;3.10;99.90;;;;;;5055057;28;20075;-51
2023/02/14 04:43:26;;;;;;;54.25;37.65;;;3.10;99.90;;;;;;5055989;28;20041;-51
2023/02/14 04:45:53;;;;;;;51.35;36.60;;;3.10;99.90;;;;;;5056251;28;20102;-52
2023/02/14 04:48:20;;;;;;;49.47;36.80;;;3.00;99.90;;;;;;5055574;28;20045;-51
2023/02/14 04:50:46;;;;;;;50.17;36.67;;;3.00;99.90;;;;;;5056198;28;20094;-53
2023/02/14 04:53:13;;;;;;;56.17;37.58;;;3.00;99.90;;;;;;5055880;28;20076;-55
2023/02/14 04:55:40;;;;;;;58.08;40.05;;;2.90;99.90;;;;;;5056274;28;20052;-56
2023/02/14 04:58:06;;;;;;;56.25;38.92;;;3.00;99.90;;;;;;5055864;28;20060;-48
2023/02/14 05:00:33;;;;;;;53.72;36.22;;;2.90;99.90;;;;;;5055721;28;20388;-53
2023/02/14 05:03:00;;;;;;;52.85;37.65;;;2.90;99.90;;;;;;5055900;28;20053;-51
2023/02/14 05:05:27;;;;;;;52.80;36.75;;;2.90;99.90;;;;;;5055837;28;20049;-50
2023/02/14 05:07:53;;;;;;;52.75;35.58;;;2.90;99.90;;;;;;5055576;28;20041;-52
2023/02/14 05:10:20;;;;;;;53.88;35.53;;;2.90;99.90;;;;;;5055597;28;20067;-54
2023/02/14 05:12:47;;;;;;;54.28;36.72;;;2.80;99.90;;;;;;5055855;28;20048;-51
2023/02/14 05:15:14;;;;;;;50.58;36.70;;;2.80;99.90;;;;;;5055098;28;20451;-54
2023/02/14 05:17:40;;;;;;;54.28;35.40;;;2.70;99.90;;;;;;5055686;28;20048;-53
2023/02/14 05:20:07;;;;;;;47.58;34.78;;;2.70;99.90;;;;;;5055697;28;20041;-50
2023/02/14 05:22:34;;;;;;;54.80;36.05;;;2.70;99.90;;;;;;5055440;28;20076;-50
2023/02/14 05:25:00;;;;;;;52.53;36.63;;;2.60;99.90;;;;;;5055444;28;20049;-51
2023/02/14 05:27:27;;;;;;;50.28;35.88;;;2.60;99.90;;;;;;5055303;28;20037;-51
2023/02/14 05:29:54;;;;;;;55.50;37.20;;;2.60;99.90;;;;;;5055208;28;20044;-51
2023/02/14 05:32:21;;;;;;;50.22;36.70;;;2.60;99.90;;;;;;5055292;28;20731;-51
2023/02/14 05:34:47;;;;;;;52.70;37.20;;;2.60;99.90;;;;;;5055487;28;20041;-52
2023/02/14 05:37:14;;;;;;;50.28;34.47;;;2.60;99.90;;;;;;5055499;28;20041;-48
2023/02/14 05:39:41;;;;;;;49.67;35.72;;;2.60;99.90;;;;;;5055150;28;20033;-50
2023/02/14 05:42:07;;;;;;;49.95;35.95;;;2.50;99.90;;;;;;5055187;28;20037;-53
2023/02/14 05:44:37;;;;;;;52.00;36.67;;;2.50;99.90;;;;;;5055264;28;20099;-52
2023/02/14 05:47:04;;;;;;;55.33;38.05;;;2.60;99.90;;;;;;5054892;28;20464;-51
2023/02/14 05:49:30;;;;;;;52.10;36.38;;;2.60;99.90;;;;;;5054936;28;20068;-50
2023/02/14 05:51:57;;;;;;;52.75;36.58;;;2.60;99.90;;;;;;5055073;28;20102;-53
2023/02/14 05:54:24;;;;;;;55.85;38.10;;;2.50;99.90;;;;;;5054895;28;20460;-50
2023/02/14 05:56:50;;;;;;;54.00;37.15;;;2.50;99.90;;;;;;5054915;28;20464;-50
2023/02/14 05:59:17;;;;;;;49.65;35.70;;;2.50;99.90;;;;;;5054499;28;20054;-52
2023/02/14 06:01:44;;;;;;;57.03;37.92;;;2.50;99.90;;;;;;5054239;28;20036;-56
2023/02/14 06:04:11;;;;;;;52.58;37.38;;;2.50;99.90;;;;;;5054718;28;20059;-53
2023/02/14 06:06:37;;;;;;;50.85;35.17;;;2.40;99.90;;;;;;5054752;28;20044;-53
2023/02/14 06:09:04;;;;;;;51.53;36.58;;;2.40;99.90;;;;;;5054816;28;20044;-51
2023/02/14 06:11:31;;;;;;;52.17;36.38;;;2.40;99.90;;;;;;5054516;28;20530;-49
2023/02/14 06:13:58;;;;;;;55.00;36.72;;;2.40;99.90;;;;;;5054364;28;20219;-52
2023/02/14 06:16:24;;;;;;;50.60;36.50;;;2.40;99.90;;;;;;5054349;28;20037;-52
2023/02/14 06:18:51;;;;;;;55.55;37.42;;;2.30;99.90;;;;;;5054755;28;20030;-49
2023/02/14 06:21:18;;;;;;;51.28;35.85;;;2.30;99.90;;;;;;5054655;28;20415;-48
2023/02/14 06:23:45;;;;;;;53.13;36.72;;;2.30;99.90;;;;;;5054026;28;20053;-51
2023/02/14 06:26:11;;;;;;;49.20;35.45;;;2.30;99.90;;;;;;5054030;28;20049;-50
2023/02/14 06:28:38;;;;;;;49.83;34.63;;;2.20;99.90;;;;;;5054357;28;20041;-52
2023/02/14 06:31:05;;;;;;;48.67;33.42;;;2.20;99.90;;;;;;5053902;28;20067;-53
2023/02/14 06:33:32;;;;;;;52.75;36.15;;;2.20;99.90;;;;;;5053800;28;20095;-50
2023/02/14 06:35:59;;;;;;;50.05;35.22;;;2.10;99.90;;;;;;5054256;28;20040;-48
2023/02/14 06:38:25;;;;;;;51.47;36.85;;;2.10;99.90;;;;;;5054119;28;20066;-52
2023/02/14 06:40:52;;;;;;;48.78;35.08;;;2.10;99.90;;;;;;5054257;28;20361;-50
2023/02/14 06:43:19;;;;;;;51.85;36.17;;;2.10;99.90;;;;;;5053826;28;20076;-50
2023/02/14 06:45:46;;;;;;;48.38;36.17;;;2.10;99.90;;;;;;5053865;28;20443;-49
2023/02/14 06:48:12;;;;;;;51.85;37.13;;;2.10;99.90;;;;;;5053868;28;20073;-50
2023/02/14 06:50:39;;;;;;;48.83;35.70;;;2.10;99.90;;;;;;5053364;28;20041;-48
2023/02/14 06:53:06;;;;;;;49.20;33.85;;;2.10;99.90;;;;;;5053857;28;20119;-50
2023/02/14 06:55:33;;;;;;;55.08;37.03;;;2.00;99.90;;;;;;5053577;28;20045;-46
2023/02/14 06:57:59;;;;;;;48.42;33.97;;;2.00;99.90;;;;;;5053610;28;20041;-49
2023/02/14 07:00:26;;;;;;;52.95;36.17;;;2.00;99.90;;;;;;5053722;28;20060;-46
2023/02/14 07:02:53;;;;;;;53.00;38.92;;;2.00;99.90;;;;;;5052392;28;20063;-46
2023/02/14 07:05:20;;;;;;;53.30;36.95;;;2.00;99.90;;;;;;5053432;28;20041;-45
2023/02/14 07:07:47;;;;;;;52.65;37.38;;;2.00;99.90;;;;;;5053267;28;20040;-46
2023/02/14 07:10:14;;;;;;;49.13;35.95;;;1.90;99.90;;;;;;5053586;28;20041;-49
2023/02/14 07:12:41;;;;;;;50.83;36.20;;;1.90;99.90;;;;;;5053408;28;20044;-49
2023/02/14 07:15:07;;;;;;;55.50;37.13;;;1.90;99.90;;;;;;5053380;28;20049;-49
2023/02/14 07:17:34;;;;;;;53.10;37.47;;;1.90;99.90;;;;;;5053245;28;20045;-49
2023/02/14 07:20:01;;;;;;;47.95;34.05;;;1.90;99.90;;;;;;5052070;28;20064;-51
2023/02/14 07:22:28;;;;;;;52.30;36.60;;;1.90;99.90;;;;;;5053030;28;20119;-51
2023/02/14 07:24:56;;;;;;;52.03;35.88;;;1.90;99.90;;;;;;5052969;28;20132;-50
2023/02/14 07:27:22;;;;;;;52.35;35.53;;;1.90;99.90;;;;;;5053429;28;20056;-51
2023/02/14 07:29:49;;;;;;;54.97;37.95;;;1.90;99.90;;;;;;5053025;28;20124;-52
2023/02/14 07:32:16;;;;;;;51.97;36.08;;;1.90;99.90;;;;;;5053450;28;20045;-48
2023/02/14 07:34:43;;;;;;;53.88;37.40;;;1.90;99.90;;;;;;5052977;28;20052;-53
2023/02/14 07:37:09;;;;;;;54.75;37.35;;;1.90;99.90;;;;;;5053063;28;20087;-51
2023/02/14 07:39:36;;;;;;;56.20;38.22;;;1.90;99.90;;;;;;5051904;28;20044;-52
2023/02/14 07:42:03;;;;;;;52.33;37.35;;;1.90;99.90;;;;;;5053058;28;20051;-51
2023/02/14 07:44:31;;;;;;;53.75;39.92;;;1.90;99.90;;;;;;5052113;28;20075;-52
2023/02/14 07:46:57;;;;;;;56.20;39.63;;;2.00;99.90;;;;;;5052976;28;20465;-51
2023/02/14 07:49:24;;;;;;;54.33;37.30;;;2.00;99.90;;;;;;5052870;28;20060;-53
2023/02/14 07:51:51;;;;;;;55.33;39.65;;;2.00;99.90;;;;;;5053152;28;20428;-52
2023/02/14 07:54:17;;;;;;;58.53;39.85;;;2.10;99.90;;;;;;5052976;28;20041;-49
2023/02/14 07:56:47;;;;;;;53.90;38.80;;;2.10;99.90;;;;;;5053114;28;20048;-52
2023/02/14 07:59:14;;;;;;;52.33;38.05;;;2.10;99.90;;;;;;5053437;28;20464;-50
2023/02/14 08:01:41;;;;;;;54.15;38.75;;;2.10;99.90;;;;;;5053288;28;20041;-53
2023/02/14 08:04:07;;;;;;;56.17;40.83;;;2.10;99.90;;;;;;5053010;28;20055;-49
2023/02/14 08:06:34;;;;;;;55.47;40.22;;;2.20;99.90;;;;;;5052769;28;20045;-52
2023/02/14 08:09:01;;;;;;;87.95;59.03;;;2.20;99.90;;;;;;5052449;28;20052;-53
2023/02/14 08:14:13;;;;;;;64.05;44.22;;;2.20;99.90;;;;;;5052552;28;20080;-52
2023/02/14 08:16:40;;;;;;;60.53;40.65;;;2.30;99.90;;;;;;5052736;28;20443;-51
2023/02/14 08:19:07;;;;;;;58.38;42.13;;;2.30;99.90;;;;;;5052955;28;20495;-49
2023/02/14 08:21:33;;;;;;;66.85;44.58;;;2.40;99.90;;;;;;5052785;28;20380;-53
2023/02/14 08:24:00;;;;;;;61.75;42.58;;;2.40;99.90;;;;;;5054277;28;20037;-53
2023/02/14 08:26:27;;;;;;;54.95;40.92;;;2.50;99.90;;;;;;5056023;28;20040;-53
2023/02/14 08:28:54;;;;;;;56.38;41.10;;;2.50;99.90;;;;;;5056759;28;20060;-53
2023/02/14 08:31:20;;;;;;;62.33;41.22;;;2.60;99.90;;;;;;5054943;28;20068;-54
2023/02/14 08:34:01;;;;;;;62.30;44.38;;;2.60;99.90;;;;;;5054875;28;21107;-52
2023/02/14 08:36:27;;;;;;;58.80;41.25;;;2.70;99.90;;;;;;5050326;28;20098;-53
2023/02/14 08:38:56;;;;;;;59.80;43.47;;;2.70;99.90;;;;;;5055152;28;20049;-52
2023/02/14 08:41:23;;;;;;;58.40;41.30;;;2.80;99.90;;;;;;5055432;28;20114;-51
2023/02/14 08:43:50;;;;;;;56.83;41.58;;;2.80;99.90;;;;;;5055504;28;20447;-54
2023/02/14 08:46:16;;;;;;;57.63;41.30;;;2.90;99.90;;;;;;5055323;28;20094;-51
2023/02/14 08:48:43;;;;;;;61.92;43.78;;;3.00;99.90;;;;;;5055433;28;20045;-54
2023/02/14 08:51:11;;;;;;;58.30;40.83;;;3.10;99.90;;;;;;5055630;28;20065;-53
2023/02/14 08:53:37;;;;;;;55.03;39.35;;;3.10;99.90;;;;;;5055233;28;20068;-52
2023/02/14 08:56:04;;;;;;;58.80;43.47;;;3.20;99.90;;;;;;5055184;28;20041;-51
2023/02/14 08:58:31;;;;;;;60.03;42.30;;;3.30;99.90;;;;;;5055123;28;20051;-48
2023/02/14 09:00:58;;;;;;;71.85;49.60;;;3.30;99.90;;;;;;5055238;28;20132;-51
2023/02/14 09:03:25;;;;;;;81.22;53.67;;;3.40;99.90;;;;;;5055078;28;20147;-48
2023/02/14 09:05:52;;;;;;;67.22;48.90;;;3.50;99.90;;;;;;5054767;28;20459;-51
2023/02/14 09:08:20;;;;;;;69.38;50.70;;;3.50;99.90;;;;;;5054707;28;20044;-54
2023/02/14 09:10:47;;;;;;;71.93;49.50;;;3.60;99.90;;;;;;5053555;28;20412;-47
2023/02/14 09:13:14;;;;;;;68.93;49.25;;;3.70;99.90;;;;;;5054780;28;20043;-50
2023/02/14 09:15:41;;;;;;;71.22;49.72;;;3.80;99.90;;;;;;5054424;28;20053;-51
2023/02/14 09:18:07;;;;;;;68.90;49.45;;;3.90;99.90;;;;;;5054790;28;20095;-51
2023/02/14 09:20:34;;;;;;;68.10;48.45;;;4.00;99.90;;;;;;5054710;28;20073;-54
2023/02/14 09:23:01;;;;;;;71.70;49.22;;;4.10;99.90;;;;;;5054798;28;20131;-52
2023/02/14 09:25:27;;;;;;;69.18;48.72;;;4.10;99.90;;;;;;5053912;28;20476;-54
2023/02/14 09:27:54;;;;;;;66.75;48.92;;;4.20;99.90;;;;;;5053483;28;20450;-53
2023/02/14 09:30:21;;;;;;;68.97;48.53;;;4.30;99.90;;;;;;5054775;28;20045;-53
2023/02/14 09:32:48;;;;;;;69.38;48.28;;;4.40;99.90;;;;;;5053962;28;20084;-53
2023/02/14 09:35:15;;;;;;;70.22;50.90;;;4.50;99.90;;;;;;5053491;28;20476;-53
2023/02/14 09:40:27;;;;;;;69.97;50.20;;;4.70;99.90;;;;;;5054988;28;20048;-55
2023/02/14 09:42:54;;;;;;;65.93;48.38;;;4.80;99.90;;;;;;5050437;28;20439;-52
2023/02/14 09:45:21;;;;;;;65.50;46.53;;;4.90;99.90;;;;;;5035301;28;20376;-51
2023/02/14 09:47:47;;;;;;;65.20;45.83;;;5.00;99.90;;;;;;5041867;28;20091;-49
2023/02/14 09:50:16;;;;;;;64.93;46.47;;;5.10;99.90;;;;;;5053342;28;20029;-51
2023/02/14 09:52:43;;;;;;;64.53;45.75;;;5.20;99.90;;;;;;5045233;28;20042;-51
2023/02/14 09:55:10;;;;;;;63.53;42.60;;;5.30;99.90;;;;;;5043052;28;20029;-50
2023/02/14 09:57:37;;;;;;;51.90;41.17;;;5.40;99.90;;;;;;5045070;28;20033;-51
2023/02/14 10:00:04;;;;;;;55.17;40.75;;;5.50;99.90;;;;;;5042898;28;20116;-52
2023/02/14 10:02:31;;;;;;;61.15;41.63;;;5.60;99.90;;;;;;5046709;28;20045;-49
2023/02/14 10:04:57;;;;;;;53.75;40.10;;;5.70;99.90;;;;;;5032691;28;20045;-49
2023/02/14 10:07:24;;;;;;;53.88;39.65;;;5.80;99.90;;;;;;5039328;28;20077;-49
2023/02/14 10:09:53;;;;;;;51.40;38.85;;;5.90;99.90;;;;;;5034065;28;20042;-48
2023/02/14 10:12:20;;;;;;;49.75;36.65;;;6.00;99.90;;;;;;5033686;28;20530;-51
2023/02/14 10:14:46;;;;;;;51.35;36.97;;;6.10;99.90;;;;;;5050482;28;20087;-53
2023/02/14 10:17:13;;;;;;;45.65;37.38;;;6.20;99.90;;;;;;5053609;28;20045;-53
2023/02/14 10:19:40;;;;;;;47.38;36.78;;;6.30;99.90;;;;;;5052791;28;20468;-54
2023/02/14 10:22:08;;;;;;;49.17;36.55;;;6.40;99.90;;;;;;5053553;28;20382;-53
2023/02/14 10:24:35;;;;;;;48.13;36.45;;;6.50;99.90;;;;;;5053548;28;20080;-52
2023/02/14 10:27:01;;;;;;;45.40;34.80;;;6.50;99.90;;;;;;5053596;28;20465;-54
2023/02/14 10:29:28;;;;;;;47.72;34.15;;;6.60;99.90;;;;;;5053271;28;20071;-51
2023/02/14 10:31:55;;;;;;;45.28;35.80;;;6.60;99.90;;;;;;5053291;28;20115;-52
2023/02/14 10:34:22;;;;;;;45.92;36.33;;;6.70;99.90;;;;;;5051944;28;20029;-50
2023/02/14 10:36:48;;;;;;;44.58;35.05;;;6.80;99.90;;;;;;5053254;28;20044;-52
2023/02/14 10:39:15;;;;;;;47.50;34.97;;;6.80;99.90;;;;;;5053495;28;20040;-50
2023/02/14 10:41:42;;;;;;;44.58;34.17;;;6.90;99.90;;;;;;5053026;28;20069;-50
2023/02/14 10:44:11;;;;;;;44.17;33.50;;;7.00;99.90;;;;;;5057514;28;20457;-48
2023/02/14 10:46:38;;;;;;;43.90;34.05;;;7.10;99.90;;;;;;5052503;28;20095;-51
2023/02/14 10:49:05;;;;;;;44.80;33.63;;;7.20;99.90;;;;;;5052367;28;20420;-51
2023/02/14 10:51:31;;;;;;;40.50;31.85;;;7.20;99.90;;;;;;5052965;28;20191;-48
2023/02/14 10:53:59;;;;;;;41.22;30.52;;;7.30;99.90;;;;;;5053081;28;20102;-49
2023/02/14 10:56:26;;;;;;;38.63;28.55;;;7.40;99.90;;;;;;5053031;28;20055;-49
2023/02/14 10:58:54;;;;;;;38.00;28.40;;;7.40;99.90;;;;;;5053215;28;20095;-50
2023/02/14 11:01:21;;;;;;;34.65;26.70;;;7.50;99.90;;;;;;5053046;28;20401;-51
2023/02/14 11:03:48;;;;;;;32.08;23.98;;;7.60;99.90;;;;;;5053025;28;20112;-52
2023/02/14 11:06:14;;;;;;;33.45;22.98;;;7.70;99.90;;;;;;5052651;28;20040;-55
2023/02/14 11:08:41;;;;;;;36.67;23.15;;;7.80;99.90;;;;;;5051449;28;20102;-55
2023/02/14 11:11:08;;;;;;;23.65;18.90;;;7.90;99.90;;;;;;5052429;28;20441;-51
2023/02/14 11:13:35;;;;;;;21.70;17.05;;;8.10;99.90;;;;;;5052699;28;20049;-47
2023/02/14 11:16:02;;;;;;;24.83;17.25;;;8.20;99.90;;;;;;5052721;28;20041;-51
2023/02/14 11:18:31;;;;;;;24.92;17.60;;;8.30;99.90;;;;;;5052795;28;20073;-48
2023/02/14 11:20:58;;;;;;;22.63;15.95;;;8.40;99.90;;;;;;5052678;28;20067;-53
2023/02/14 11:23:25;;;;;;;27.35;17.15;;;8.50;99.90;;;;;;5052748;28;20124;-55
2023/02/14 11:25:53;;;;;;;26.95;17.58;;;8.60;99.90;;;;;;5052407;28;20045;-53
2023/02/14 11:28:20;;;;;;;23.02;15.85;;;8.70;99.90;;;;;;5048952;28;20447;-51
2023/02/14 11:30:47;;;;;;;25.25;15.88;;;8.80;99.90;;;;;;5033461;28;20053;-47
2023/02/14 11:33:14;;;;;;;19.10;15.25;;;8.90;99.90;;;;;;5035748;28;20064;-47
2023/02/14 11:35:41;;;;;;;19.15;15.13;;;9.00;99.90;;;;;;5032981;28;20042;-47
2023/02/14 11:38:08;;;;;;;20.67;14.60;;;9.10;99.90;;;;;;5031809;28;20476;-52
2023/02/14 11:40:35;;;;;;;23.67;14.57;;;9.20;99.90;;;;;;5042664;28;20079;-49
2023/02/14 11:43:02;;;;;;;21.48;16.30;;;9.20;99.90;;;;;;5041913;28;20102;-54
2023/02/14 11:45:43;;;;;;;22.77;15.30;;;9.30;99.90;;;;;;5043774;28;20041;-54
2023/02/14 11:48:10;;;;;;;28.30;14.30;;;9.30;99.90;;;;;;5050606;28;20384;-53
2023/02/14 11:50:37;;;;;;;23.70;13.60;;;9.30;99.90;;;;;;5048465;28;20037;-50
2023/02/14 11:53:03;;;;;;;22.38;13.30;;;9.30;99.90;;;;;;5032931;28;20500;-53
2023/02/14 11:55:32;;;;;;;22.20;13.32;;;9.40;99.90;;;;;;5032266;28;20073;-51
2023/02/14 11:57:59;;;;;;;19.23;13.00;;;9.50;99.90;;;;;;5033126;28;20049;-52
2023/02/14 12:00:26;;;;;;;19.50;12.57;;;9.50;99.90;;;;;;5039667;28;20052;-52
2023/02/14 12:02:52;;;;;;;36.97;12.18;;;9.40;99.90;;;;;;5045315;28;20045;-52
2023/02/14 12:05:19;;;;;;;19.88;12.30;;;9.50;99.90;;;;;;5053990;28;20049;-52
2023/02/14 12:07:46;;;;;;;46.72;12.23;;;9.60;99.90;;;;;;5057311;28;20037;-55
2023/02/14 12:10:15;;;;;;;38.75;10.20;;;9.60;99.90;;;;;;5056636;28;20416;-55
2023/02/14 12:12:42;;;;;;;52.20;10.52;;;9.90;99.90;;;;;;5056557;28;20064;-53
2023/02/14 12:15:09;;;;;;;30.48;9.13;;;9.90;99.90;;;;;;5056541;28;20053;-53
2023/02/14 12:17:36;;;;;;;23.17;8.43;;;9.90;99.90;;;;;;5056879;28;20045;-55
2023/02/14 12:20:03;;;;;;;17.40;8.43;;;9.90;99.90;;;;;;5055806;28;20040;-53
2023/02/14 12:22:30;;;;;;;12.55;7.40;;;9.90;99.90;;;;;;5056661;28;20041;-56
2023/02/14 12:24:56;;;;;;;20.23;8.02;;;9.80;99.90;;;;;;5056686;28;20048;-53
2023/02/14 12:27:23;;;;;;;34.95;8.90;;;9.90;99.90;;;;;;5055144;28;20041;-50
2023/02/14 12:29:50;;;;;;;48.83;9.80;;;9.90;99.90;;;;;;5056458;28;20140;-51
2023/02/14 12:32:17;;;;;;;14.82;8.00;;;10.00;99.90;;;;;;5056545;28;20060;-48
2023/02/14 12:34:44;;;;;;;15.55;7.13;;;10.00;99.90;;;;;;5055126;28;20037;-52
2023/02/14 12:37:10;;;;;;;22.13;7.07;;;10.00;99.90;;;;;;5055722;28;20056;-50
2023/02/14 12:39:37;;;;;;;20.15;8.27;;;10.00;99.90;;;;;;5055370;28;20095;-50
2023/02/14 12:42:04;;;;;;;17.15;7.50;;;10.10;99.90;;;;;;5055978;28;20063;-54
2023/02/14 12:44:31;;;;;;;17.58;8.18;;;10.30;99.90;;;;;;5055153;28;20077;-51
2023/02/14 12:46:58;;;;;;;15.25;7.75;;;10.30;99.90;;;;;;5055790;28;20068;-50
2023/02/14 12:49:24;;;;;;;18.25;8.27;;;10.30;99.90;;;;;;5055218;28;20045;-54
2023/02/14 12:51:51;;;;;;;10.95;7.53;;;10.30;99.90;;;;;;5056124;28;20049;-49
2023/02/14 12:54:18;;;;;;;18.95;7.93;;;10.30;99.90;;;;;;5055347;28;20041;-54
2023/02/14 12:56:45;;;;;;;10.98;7.78;;;10.30;99.90;;;;;;5055582;28;20435;-50
2023/02/14 12:59:11;;;;;;;14.50;8.45;;;10.30;99.90;;;;;;5054933;28;20048;-55